Flight Briefing for CPX337

Departure Arrival
Fort Worth Alliance Airport (KAFW)
Click to view FAA NOTAMS
Miami International Airport (KMIA)
Click to view FAA NOTAMS
Departure Time Arrival Time
N/A N/A
Aircraft Distance
B767-300BDSF 989nm
Departure METAR Arrival METAR
KAFW 271107Z 18018G24KT 9SM BKN024 BKN190 OVC300 23/19 A2992 RMK AO2 T02330189 KMIA 271053Z 07007KT 10SM FEW024 26/20 A3005 RMK AO2 SLP175 T02610200
Suggested Route
KUSSO5 ZALEA SWB HRV Q105 BLVNS Y290 BAGGS SSCOT5


View recent IFR Routes data
Notes



Charts and Procedures

Charts for KAFW
No chart available
Charts for KMIA
No chart available

Windy.com Weather Map